createdAt,value
2018-09-18T16:00:33.294Z,30.60
2018-09-18T16:03:01.464Z,30.30
2018-09-18T16:05:29.639Z,31.20
2018-09-18T16:10:25.730Z,32.30
2018-09-18T16:12:53.888Z,32.40
2018-09-18T16:15:22.150Z,32.40
2018-09-18T16:17:51.084Z,31.50
2018-09-18T16:20:19.263Z,30.90
2018-09-18T16:22:47.464Z,31.00
2018-09-18T16:25:15.581Z,31.40
2018-09-18T16:27:43.759Z,30.80
2018-09-18T16:32:39.891Z,29.70
2018-09-18T16:37:35.904Z,29.40
2018-09-18T16:42:32.010Z,29.00
2018-09-18T16:45:00.116Z,28.90
2018-09-18T16:47:28.273Z,28.80
2018-09-18T16:49:56.415Z,28.60
2018-09-18T16:52:24.588Z,28.60
2018-09-18T16:57:20.666Z,28.50
2018-09-18T16:59:48.808Z,28.70
2018-09-18T17:02:16.988Z,28.70
2018-09-18T17:04:45.116Z,28.60
2018-09-18T17:09:41.223Z,28.40
2018-09-18T17:17:05.324Z,27.90
2018-09-18T17:19:33.514Z,27.80
2018-09-18T17:22:01.620Z,27.50
2018-09-18T17:24:29.819Z,26.70
2018-09-18T17:29:25.865Z,26.60
2018-09-18T17:34:21.994Z,26.10
2018-09-18T17:36:50.277Z,25.60
2018-09-18T17:39:18.792Z,26.00
2018-09-18T17:41:46.958Z,26.10
2018-09-18T17:46:43.055Z,26.40
2018-09-18T17:49:11.219Z,26.50
2018-09-18T17:51:39.389Z,26.50
2018-09-18T17:54:07.574Z,26.60
2018-09-18T17:56:35.765Z,26.50
2018-09-18T18:01:38.533Z,26.50
2018-09-18T18:04:06.692Z,26.30
2018-09-18T18:06:34.856Z,26.40
2018-09-18T18:09:04.497Z,26.50
2018-09-18T18:11:32.676Z,26.40
2018-09-18T18:14:00.808Z,26.40
2018-09-18T18:16:28.948Z,26.40
2018-09-18T18:21:25.025Z,26.40
2018-09-18T18:23:53.220Z,26.50
2018-09-18T18:26:21.429Z,26.50
2018-09-18T18:33:45.380Z,26.40
2018-09-18T18:36:13.586Z,26.40
2018-09-18T18:38:41.727Z,26.30
2018-09-18T18:41:09.871Z,26.30
2018-09-18T18:43:38.059Z,26.30
2018-09-18T18:46:06.303Z,26.30
2018-09-18T18:48:34.507Z,26.20
2018-09-18T18:51:02.636Z,26.10
2018-09-18T18:53:30.791Z,26.10
2018-09-18T18:55:58.932Z,26.00
2018-09-18T18:58:27.113Z,25.90
2018-09-18T19:00:55.262Z,25.90
2018-09-18T19:10:47.157Z,25.60
2018-09-18T19:13:15.311Z,25.60
2018-09-18T19:15:43.453Z,25.50
2018-09-18T19:18:11.600Z,25.50
2018-09-18T19:23:07.754Z,25.40
2018-09-18T19:25:35.944Z,25.10
2018-09-18T19:30:31.960Z,25.10
2018-09-18T19:33:00.198Z,25.00
2018-09-18T19:35:28.267Z,24.90
2018-09-18T19:37:56.444Z,24.80
2018-09-18T19:40:24.597Z,24.60
2018-09-18T19:42:52.760Z,24.60
2018-09-18T19:45:20.918Z,24.80
2018-09-18T19:47:49.076Z,24.70
2018-09-18T19:52:47.285Z,24.50
2018-09-18T19:55:15.982Z,24.20
2018-09-18T19:57:44.248Z,24.20
2018-09-18T20:02:41.354Z,24.20
2018-09-18T20:10:05.467Z,23.60
2018-09-18T20:15:01.553Z,23.10
2018-09-18T20:22:25.501Z,22.80
2018-09-18T20:24:53.629Z,22.70
2018-09-18T20:27:21.803Z,22.40
2018-09-18T20:29:49.979Z,22.20
2018-09-18T20:32:18.158Z,22.10
2018-09-18T20:34:46.325Z,21.90
2018-09-18T20:37:14.498Z,21.80
2018-09-18T20:39:42.660Z,21.70
2018-09-18T20:42:10.862Z,21.60
2018-09-18T20:44:38.992Z,21.50
2018-09-18T20:47:07.400Z,21.30
2018-09-18T20:49:35.566Z,21.30
2018-09-18T20:52:03.861Z,21.20
2018-09-18T20:54:32.792Z,21.10
2018-09-18T20:57:00.963Z,21.00
2018-09-18T20:59:29.106Z,21.00
2018-09-18T21:04:36.193Z,20.80
2018-09-18T21:07:04.358Z,20.80
2018-09-18T21:09:32.523Z,20.70
2018-09-18T21:12:00.692Z,20.60
2018-09-18T21:14:28.846Z,20.60
2018-09-18T21:19:24.942Z,20.50
2018-09-18T21:21:53.092Z,20.40
2018-09-18T21:26:49.181Z,20.30
2018-09-18T21:31:45.306Z,20.20
2018-09-18T21:34:13.406Z,20.20
2018-09-18T21:36:41.551Z,20.10
2018-09-18T21:39:10.528Z,20.10
2018-09-18T21:41:38.679Z,20.10
2018-09-18T21:44:06.836Z,20.10
2018-09-18T21:46:34.963Z,20.10
2018-09-18T21:49:03.116Z,20.00
2018-09-18T21:51:31.277Z,20.10
2018-09-18T21:53:59.469Z,20.10
2018-09-18T21:56:27.640Z,20.20
2018-09-18T21:58:55.846Z,20.30
